createdAt,value
2023-11-29T00:11:16.360Z,90
2023-11-29T00:26:16.654Z,90
2023-11-29T00:41:16.351Z,90
2023-11-29T00:56:16.373Z,91
2023-11-29T01:11:16.278Z,91
2023-11-29T01:26:16.288Z,92
2023-11-29T01:41:16.319Z,92
2023-11-29T01:56:16.237Z,92
2023-11-29T02:11:17.068Z,92
2023-11-29T02:26:16.229Z,93
2023-11-29T02:41:16.315Z,93
2023-11-29T02:56:16.205Z,93
2023-11-29T03:11:16.268Z,93
2023-11-29T03:26:16.182Z,93
2023-11-29T03:41:16.242Z,93
2023-11-29T03:56:16.192Z,93
2023-11-29T04:11:16.245Z,93
2023-11-29T04:26:16.152Z,93
2023-11-29T04:41:16.210Z,94
2023-11-29T04:56:16.155Z,94
2023-11-29T05:11:16.214Z,94
2023-11-29T05:26:16.174Z,94
2023-11-29T05:41:16.151Z,94
2023-11-29T05:56:16.163Z,94
2023-11-29T06:11:18.207Z,94
2023-11-29T06:26:16.116Z,94
2023-11-29T06:41:16.157Z,94
2023-11-29T06:56:16.106Z,94
2023-11-29T07:11:16.101Z,94
2023-11-29T07:26:16.068Z,95
2023-11-29T07:41:16.032Z,95
2023-11-29T07:56:16.049Z,95
2023-11-29T08:11:16.037Z,95
2023-11-29T08:26:16.037Z,95
2023-11-29T08:41:16.033Z,95
2023-11-29T08:56:16.085Z,95
2023-11-29T09:11:16.058Z,95
2023-11-29T09:26:16.029Z,95
2023-11-29T09:41:16.018Z,96
2023-11-29T09:56:15.989Z,96
2023-11-29T10:11:16.016Z,95
2023-11-29T10:26:15.969Z,95
2023-11-29T10:41:16.153Z,95
2023-11-29T10:56:16.000Z,95
2023-11-29T11:11:15.977Z,95
2023-11-29T11:26:15.913Z,94
2023-11-29T11:41:15.942Z,93
2023-11-29T11:56:16.029Z,93
2023-11-29T12:11:15.911Z,93
2023-11-29T12:26:15.852Z,92
2023-11-29T12:41:15.859Z,92
2023-11-29T12:56:18.845Z,91
2023-11-29T13:11:15.767Z,91
2023-11-29T13:26:15.789Z,90
2023-11-29T13:41:15.794Z,89
2023-11-29T13:56:15.792Z,88
2023-11-29T14:11:15.745Z,88
2023-11-29T14:26:15.717Z,88
2023-11-29T14:41:15.756Z,88
2023-11-29T14:56:21.167Z,87
2023-11-29T15:11:15.716Z,86
2023-11-29T15:26:15.660Z,86
2023-11-29T15:41:15.638Z,85
2023-11-29T15:56:15.611Z,84
2023-11-29T16:11:15.731Z,84
2023-11-29T16:26:15.634Z,84
2023-11-29T16:41:15.691Z,84
2023-11-29T16:56:15.584Z,83
2023-11-29T17:11:15.587Z,83
2023-11-29T17:26:15.564Z,83
2023-11-29T17:41:15.638Z,83
2023-11-29T17:56:16.837Z,82
2023-11-29T18:11:15.577Z,82
2023-11-29T18:26:15.527Z,82
2023-11-29T18:41:15.545Z,82
2023-11-29T18:56:15.485Z,82
2023-11-29T19:11:15.530Z,82
2023-11-29T19:26:15.473Z,82
2023-11-29T19:41:15.587Z,82
2023-11-29T19:56:15.752Z,82
2023-11-29T20:11:15.450Z,82
2023-11-29T20:26:15.425Z,81
2023-11-29T20:41:15.453Z,81
2023-11-29T20:56:15.394Z,81
2023-11-29T21:11:15.433Z,81
2023-11-29T21:26:15.395Z,81
2023-11-29T21:41:15.391Z,81
2023-11-29T21:56:15.363Z,81
2023-11-29T22:11:15.363Z,82
2023-11-29T22:26:15.358Z,84
2023-11-29T22:41:15.425Z,85
2023-11-29T22:56:15.327Z,87
2023-11-29T23:11:15.335Z,88
2023-11-29T23:26:15.319Z,89
2023-11-29T23:41:15.297Z,90
2023-11-29T23:56:15.247Z,90
